createdAt,value
2023-04-27T00:02:08.296Z,1.10
2023-04-27T00:04:36.005Z,1.10
2023-04-27T00:07:03.644Z,1.23
2023-04-27T00:09:31.134Z,1.40
2023-04-27T00:11:58.403Z,1.40
2023-04-27T00:14:28.992Z,1.00
2023-04-27T00:16:57.020Z,1.30
2023-04-27T00:19:24.374Z,1.20
2023-04-27T00:21:51.907Z,1.00
2023-04-27T00:24:19.366Z,0.80
2023-04-27T00:26:46.698Z,1.20
2023-04-27T00:29:14.201Z,1.17
2023-04-27T00:31:42.068Z,0.90
2023-04-27T00:34:09.452Z,1.30
2023-04-27T00:36:37.009Z,1.20
2023-04-27T00:39:06.541Z,1.23
2023-04-27T00:41:33.938Z,1.20
2023-04-27T00:44:01.568Z,1.00
2023-04-27T00:46:30.898Z,1.10
2023-04-27T00:48:58.378Z,1.10
2023-04-27T00:51:28.364Z,2.20
2023-04-27T00:53:55.965Z,1.10
2023-04-27T00:56:23.728Z,1.30
2023-04-27T00:58:51.526Z,1.00
2023-04-27T01:01:20.785Z,1.10
2023-04-27T01:03:49.133Z,1.17
2023-04-27T01:06:16.812Z,1.30
2023-04-27T01:08:44.259Z,1.57
2023-04-27T01:11:11.744Z,1.17
2023-04-27T01:13:39.106Z,1.10
2023-04-27T01:16:07.081Z,1.00
2023-04-27T01:18:37.047Z,1.20
2023-04-27T01:21:04.503Z,1.23
2023-04-27T01:23:32.135Z,1.03
2023-04-27T01:25:59.441Z,1.10
2023-04-27T01:28:26.760Z,1.10
2023-04-27T01:30:54.107Z,1.30
2023-04-27T01:33:22.544Z,1.00
2023-04-27T01:35:50.223Z,1.30
2023-04-27T01:38:18.292Z,1.23
2023-04-27T01:40:45.866Z,1.10
2023-04-27T01:43:13.181Z,1.13
2023-04-27T01:45:40.575Z,1.10
2023-04-27T01:48:08.096Z,1.27
2023-04-27T01:50:35.572Z,1.30
2023-04-27T01:53:03.669Z,1.47
2023-04-27T01:55:31.410Z,1.30
2023-04-27T01:57:58.852Z,1.27
2023-04-27T02:00:26.231Z,1.00
2023-04-27T02:02:54.402Z,1.60
2023-04-27T02:05:21.903Z,1.13
2023-04-27T02:07:49.824Z,1.30
2023-04-27T02:10:17.205Z,1.10
2023-04-27T02:12:44.609Z,1.10
2023-04-27T02:15:12.055Z,1.27
2023-04-27T02:17:39.834Z,1.30
2023-04-27T02:20:07.824Z,1.20
2023-04-27T02:22:35.256Z,1.40
2023-04-27T02:25:02.903Z,1.27
2023-04-27T02:27:30.695Z,1.20
2023-04-27T02:29:58.650Z,1.13
2023-04-27T02:32:27.309Z,1.30
2023-04-27T02:34:55.537Z,1.17
2023-04-27T02:37:23.059Z,1.30
2023-04-27T02:39:50.329Z,1.13
2023-04-27T02:42:17.687Z,1.00
2023-04-27T02:44:45.189Z,1.43
2023-04-27T02:47:12.631Z,0.97
2023-04-27T02:49:40.455Z,1.00
2023-04-27T02:52:08.182Z,1.20
2023-04-27T02:54:35.498Z,1.43
2023-04-27T02:57:03.284Z,1.30
2023-04-27T02:59:30.646Z,1.20
2023-04-27T03:01:58.123Z,1.30
2023-04-27T03:04:25.666Z,1.17
2023-04-27T03:06:53.245Z,1.30
2023-04-27T03:09:20.737Z,1.40
2023-04-27T03:11:48.169Z,1.20
2023-04-27T03:14:15.599Z,1.40
2023-04-27T03:16:44.333Z,1.70
2023-04-27T03:19:12.108Z,1.20
2023-04-27T03:21:39.729Z,1.13
2023-04-27T03:24:07.208Z,1.47
2023-04-27T03:26:34.646Z,1.50
2023-04-27T03:29:02.045Z,1.43
2023-04-27T03:31:29.397Z,1.40
2023-04-27T03:36:24.453Z,1.33
2023-04-27T03:38:51.821Z,0.97
2023-04-27T03:41:19.120Z,1.30
2023-04-27T03:43:47.706Z,1.40
2023-04-27T03:46:15.186Z,1.30
2023-04-27T03:48:44.080Z,1.30
2023-04-27T03:51:11.652Z,1.20
2023-04-27T03:53:39.055Z,1.40
2023-04-27T03:56:06.528Z,1.23
2023-04-27T03:58:33.971Z,1.30
2023-04-27T04:01:01.608Z,1.40
2023-04-27T04:03:29.229Z,1.07
2023-04-27T04:05:56.794Z,1.77
2023-04-27T04:08:24.199Z,2.07
2023-04-27T04:10:51.898Z,1.40
2023-04-27T04:13:19.336Z,1.37
2023-04-27T04:15:46.833Z,1.47
2023-04-27T04:18:14.405Z,1.47
2023-04-27T04:20:42.005Z,1.40
2023-04-27T04:23:09.323Z,1.30
2023-04-27T04:25:36.732Z,1.23
2023-04-27T04:28:04.081Z,1.40
2023-04-27T04:30:33.526Z,1.40
2023-04-27T04:33:00.960Z,1.60
2023-04-27T04:35:28.376Z,1.50
2023-04-27T04:37:55.693Z,1.33
2023-04-27T04:40:23.049Z,1.23
2023-04-27T04:42:50.366Z,1.40
2023-04-27T04:45:17.765Z,1.20
2023-04-27T04:47:45.225Z,1.50
2023-04-27T04:50:13.364Z,1.20
2023-04-27T04:52:40.850Z,1.40
2023-04-27T04:55:08.372Z,1.40
2023-04-27T04:57:36.932Z,1.43
2023-04-27T05:00:12.569Z,0.97
2023-04-27T05:02:40.996Z,1.40
2023-04-27T05:05:08.882Z,2.00
2023-04-27T05:07:36.325Z,1.43
2023-04-27T05:10:03.785Z,1.53
2023-04-27T05:12:31.205Z,2.23
2023-04-27T05:14:58.621Z,1.63
2023-04-27T05:17:26.121Z,1.43
2023-04-27T05:19:53.850Z,1.30
2023-04-27T05:22:21.242Z,2.03
2023-04-27T05:24:48.919Z,1.37
2023-04-27T05:27:16.252Z,1.30
2023-04-27T05:29:43.798Z,1.30
2023-04-27T05:32:11.355Z,1.53
2023-04-27T05:34:38.730Z,1.10
2023-04-27T05:37:06.126Z,1.30
2023-04-27T05:39:33.489Z,1.33
2023-04-27T05:42:02.721Z,1.40
2023-04-27T05:44:30.203Z,1.17
2023-04-27T05:46:57.888Z,1.93
2023-04-27T05:49:25.209Z,1.90
2023-04-27T05:51:53.685Z,1.40
2023-04-27T05:54:21.170Z,1.30
2023-04-27T05:56:48.642Z,1.20
2023-04-27T05:59:16.277Z,1.60
2023-04-27T06:01:43.983Z,1.40
2023-04-27T06:04:11.486Z,1.93
2023-04-27T06:06:39.118Z,2.00
2023-04-27T06:09:06.713Z,2.07
2023-04-27T06:11:34.113Z,1.87
2023-04-27T06:14:01.587Z,1.57
2023-04-27T06:16:29.057Z,1.63
2023-04-27T06:18:56.812Z,1.97
2023-04-27T06:21:24.129Z,1.50
2023-04-27T06:23:51.543Z,1.70
2023-04-27T06:26:19.006Z,1.57
2023-04-27T06:28:46.901Z,1.60
2023-04-27T06:31:14.382Z,1.80
2023-04-27T06:33:41.853Z,2.13
2023-04-27T06:36:09.431Z,1.70
2023-04-27T06:38:39.685Z,1.90
2023-04-27T06:41:07.163Z,1.23
2023-04-27T06:43:34.470Z,1.70
2023-04-27T06:46:01.909Z,1.73
2023-04-27T06:48:29.579Z,1.70
2023-04-27T06:50:56.886Z,1.80
2023-04-27T06:53:24.532Z,1.70
2023-04-27T06:55:52.018Z,1.50
2023-04-27T06:58:19.366Z,1.50
2023-04-27T07:00:46.833Z,1.43
2023-04-27T07:03:14.878Z,1.10
2023-04-27T07:05:42.535Z,1.13
2023-04-27T07:08:10.140Z,1.13
2023-04-27T07:10:40.730Z,1.50
2023-04-27T07:13:09.197Z,1.20
2023-04-27T07:15:37.007Z,1.50
2023-04-27T07:18:04.517Z,1.20
2023-04-27T07:20:32.086Z,1.00
2023-04-27T07:22:59.575Z,1.07
2023-04-27T07:25:27.028Z,1.70
2023-04-27T07:27:55.211Z,0.83
2023-04-27T07:30:23.489Z,1.70
2023-04-27T07:32:54.804Z,1.33
2023-04-27T07:35:22.540Z,1.10
2023-04-27T07:37:50.163Z,1.27
2023-04-27T07:40:17.984Z,1.27
2023-04-27T07:42:48.409Z,1.27
2023-04-27T07:45:17.639Z,1.40
2023-04-27T07:47:45.160Z,1.10
2023-04-27T07:50:18.959Z,1.30
2023-04-27T07:52:46.243Z,1.00
2023-04-27T07:55:13.562Z,1.30
2023-04-27T07:57:41.206Z,1.07
2023-04-27T08:00:11.576Z,1.40
2023-04-27T08:02:42.341Z,1.10
2023-04-27T08:05:10.586Z,1.07
2023-04-27T08:07:44.214Z,1.20
2023-04-27T08:10:12.485Z,1.47
2023-04-27T08:12:39.783Z,1.20
2023-04-27T08:15:07.863Z,1.30
2023-04-27T08:17:36.593Z,1.00
2023-04-27T08:20:04.532Z,1.00
2023-04-27T08:22:31.922Z,1.10
2023-04-27T08:24:59.302Z,0.90
2023-04-27T08:27:26.665Z,1.00
2023-04-27T08:29:54.045Z,1.00
2023-04-27T08:32:21.934Z,0.90
2023-04-27T08:34:49.317Z,1.00
2023-04-27T08:37:17.604Z,1.07
2023-04-27T08:39:44.961Z,1.20
2023-04-27T08:42:13.037Z,1.20
2023-04-27T08:44:43.820Z,0.80
2023-04-27T08:47:11.839Z,1.10
2023-04-27T08:49:41.608Z,1.03
2023-04-27T08:52:12.844Z,0.90
2023-04-27T08:54:41.729Z,1.10
2023-04-27T08:57:13.097Z,1.07
2023-04-27T08:59:46.649Z,0.80
2023-04-27T09:02:20.855Z,0.83
2023-04-27T09:04:48.910Z,0.80
2023-04-27T09:07:17.709Z,0.87
2023-04-27T09:09:46.122Z,0.77
2023-04-27T09:12:17.726Z,0.80
2023-04-27T09:14:45.562Z,0.63
2023-04-27T09:17:14.527Z,0.90
2023-04-27T09:19:42.127Z,0.87
2023-04-27T09:22:11.451Z,0.80
2023-04-27T09:24:39.265Z,0.70
2023-04-27T09:27:09.031Z,0.70
2023-04-27T09:29:37.696Z,0.90
2023-04-27T09:32:21.248Z,0.90
2023-04-27T09:34:49.046Z,0.60
2023-04-27T09:37:16.522Z,0.60
2023-04-27T09:39:44.452Z,0.60
2023-04-27T09:42:13.000Z,0.70
2023-04-27T09:44:40.809Z,0.57
2023-04-27T09:47:08.267Z,0.73
2023-04-27T09:49:36.441Z,0.57
2023-04-27T09:52:04.382Z,0.60
2023-04-27T09:54:32.864Z,0.70
2023-04-27T09:57:00.141Z,1.33
2023-04-27T09:59:47.757Z,0.80
2023-04-27T10:02:24.903Z,1.00
2023-04-27T10:04:53.161Z,0.77
2023-04-27T10:07:20.725Z,0.90
2023-04-27T10:09:49.291Z,0.70
2023-04-27T10:12:19.242Z,0.63
2023-04-27T10:14:53.876Z,0.73
2023-04-27T10:17:27.212Z,0.70
2023-04-27T10:19:58.040Z,0.93
2023-04-27T10:22:39.373Z,0.57
2023-04-27T10:25:16.736Z,0.80
2023-04-27T10:27:44.288Z,0.50
2023-04-27T10:30:12.399Z,0.63
2023-04-27T10:32:51.570Z,0.87
2023-04-27T10:35:19.574Z,0.60
2023-04-27T10:37:47.803Z,0.70
2023-04-27T10:40:19.804Z,0.80
2023-04-27T10:42:49.722Z,0.87
2023-04-27T10:45:30.304Z,0.80
2023-04-27T10:48:00.357Z,0.67
2023-04-27T10:50:28.627Z,0.90
2023-04-27T10:53:01.727Z,0.67
2023-04-27T10:55:30.004Z,0.67
2023-04-27T10:57:58.060Z,0.60
2023-04-27T11:00:28.694Z,0.80
2023-04-27T11:02:56.872Z,0.83
2023-04-27T11:05:33.605Z,1.60
2023-04-27T11:08:08.427Z,0.70
2023-04-27T11:10:36.570Z,0.83
2023-04-27T11:13:08.236Z,0.80
2023-04-27T11:15:45.445Z,1.20
2023-04-27T11:18:13.252Z,0.87
2023-04-27T11:20:40.577Z,0.70
2023-04-27T11:23:08.375Z,0.67
2023-04-27T11:25:36.733Z,0.80
2023-04-27T11:28:04.627Z,0.70
2023-04-27T11:30:32.208Z,0.90
2023-04-27T11:32:59.599Z,0.70
2023-04-27T11:35:34.638Z,0.90
2023-04-27T11:38:02.220Z,1.00
2023-04-27T11:40:29.892Z,0.90
2023-04-27T11:42:58.581Z,0.60
2023-04-27T11:45:27.844Z,0.70
2023-04-27T11:47:55.305Z,0.80
2023-04-27T11:50:25.785Z,0.65
2023-04-27T11:52:53.660Z,0.67
2023-04-27T11:55:21.726Z,0.70
2023-04-27T11:57:49.329Z,0.67
2023-04-27T12:00:17.481Z,0.70
2023-04-27T12:02:48.060Z,0.52
2023-04-27T12:05:16.633Z,0.88
2023-04-27T12:07:44.206Z,0.68
2023-04-27T12:10:11.942Z,0.88
2023-04-27T12:12:39.292Z,0.60
2023-04-27T12:15:08.639Z,0.90
2023-04-27T12:17:36.370Z,0.60
2023-04-27T12:20:04.333Z,0.80
2023-04-27T12:22:31.771Z,0.98
2023-04-27T12:24:59.233Z,0.75
2023-04-27T12:27:26.688Z,0.80
2023-04-27T12:29:54.504Z,0.88
2023-04-27T12:32:22.372Z,1.00
2023-04-27T12:34:49.881Z,0.68
2023-04-27T12:37:17.199Z,0.80
2023-04-27T12:39:44.915Z,0.75
2023-04-27T12:42:12.307Z,0.82
2023-04-27T12:44:39.689Z,0.50
2023-04-27T12:47:07.226Z,0.80
2023-04-27T12:49:34.726Z,0.70
2023-04-27T12:52:02.087Z,0.70
2023-04-27T12:54:29.443Z,0.60
2023-04-27T12:56:57.201Z,0.73
2023-04-27T12:59:24.485Z,0.80
2023-04-27T13:01:51.999Z,0.60
2023-04-27T13:04:21.524Z,0.65
2023-04-27T13:06:49.603Z,0.80
2023-04-27T13:09:19.052Z,0.70
2023-04-27T13:11:46.455Z,0.70
2023-04-27T13:14:14.270Z,0.85
2023-04-27T13:16:43.002Z,0.93
2023-04-27T13:19:10.548Z,0.60
2023-04-27T13:21:41.418Z,0.60
2023-04-27T13:24:08.892Z,0.60
2023-04-27T13:26:36.538Z,0.57
2023-04-27T13:29:04.984Z,1.00
2023-04-27T13:31:35.322Z,0.60
2023-04-27T13:34:04.926Z,0.50
2023-04-27T13:36:32.370Z,0.73
2023-04-27T13:38:59.813Z,0.77
2023-04-27T13:41:28.566Z,0.70
2023-04-27T13:43:55.943Z,0.65
2023-04-27T13:46:23.435Z,0.77
2023-04-27T13:48:51.127Z,0.80
2023-04-27T13:51:18.484Z,0.55
2023-04-27T13:53:46.600Z,0.50
2023-04-27T13:56:14.055Z,0.50
2023-04-27T13:58:41.898Z,0.43
2023-04-27T14:01:09.466Z,0.52
2023-04-27T14:03:37.030Z,0.60
2023-04-27T14:06:04.609Z,0.60
2023-04-27T14:08:32.608Z,0.80
2023-04-27T14:10:59.972Z,0.73
2023-04-27T14:13:27.405Z,0.50
2023-04-27T14:15:54.764Z,0.50
2023-04-27T14:18:29.655Z,0.68
2023-04-27T14:20:59.512Z,0.57
2023-04-27T14:23:26.933Z,0.65
2023-04-27T14:25:54.329Z,0.60
2023-04-27T14:28:21.737Z,0.57
2023-04-27T14:30:52.466Z,0.63
2023-04-27T14:33:19.892Z,0.60
2023-04-27T14:35:47.334Z,1.05
2023-04-27T14:38:14.771Z,0.68
2023-04-27T14:40:42.226Z,0.77
2023-04-27T14:43:10.288Z,0.70
2023-04-27T14:45:50.382Z,0.60
2023-04-27T14:48:19.270Z,0.60
2023-04-27T14:50:49.409Z,0.40
2023-04-27T14:53:16.909Z,0.60
2023-04-27T14:55:46.058Z,0.50
2023-04-27T14:58:13.874Z,0.55
2023-04-27T15:00:41.367Z,0.52
2023-04-27T15:03:09.165Z,0.50
2023-04-27T15:05:36.786Z,0.60
2023-04-27T15:08:04.089Z,0.70
2023-04-27T15:10:31.567Z,0.30
2023-04-27T15:12:59.007Z,0.47
2023-04-27T15:15:26.398Z,0.50
2023-04-27T15:17:53.780Z,0.40
2023-04-27T15:20:21.451Z,0.52
2023-04-27T15:22:52.086Z,0.50
2023-04-27T15:25:19.568Z,0.65
2023-04-27T15:27:47.045Z,0.40
2023-04-27T15:30:15.165Z,0.50
2023-04-27T15:32:42.675Z,0.50
2023-04-27T15:35:10.302Z,0.57
2023-04-27T15:37:37.966Z,0.50
2023-04-27T15:40:07.703Z,0.80
2023-04-27T15:42:35.419Z,0.70
2023-04-27T15:45:03.016Z,0.52
2023-04-27T15:47:30.391Z,0.50
2023-04-27T15:49:58.370Z,0.55
2023-04-27T15:52:29.458Z,0.70
2023-04-27T15:54:57.364Z,0.70
2023-04-27T15:57:24.854Z,0.68
2023-04-27T15:59:52.766Z,0.50
2023-04-27T16:02:20.320Z,0.43
2023-04-27T16:04:49.083Z,0.70
2023-04-27T16:07:16.489Z,0.70
2023-04-27T16:09:44.027Z,0.60
2023-04-27T16:12:11.449Z,0.65
2023-04-27T16:14:39.248Z,0.52
2023-04-27T16:17:06.891Z,0.68
2023-04-27T16:19:34.445Z,0.57
2023-04-27T16:22:01.910Z,0.60
2023-04-27T16:24:31.182Z,0.50
2023-04-27T16:26:58.642Z,0.63
2023-04-27T16:29:26.203Z,0.52
2023-04-27T16:31:54.051Z,0.73
2023-04-27T16:34:21.521Z,0.60
2023-04-27T16:36:49.984Z,0.50
2023-04-27T16:39:19.435Z,0.60
2023-04-27T16:41:47.090Z,0.60
2023-04-27T16:44:14.489Z,0.65
2023-04-27T16:46:41.882Z,0.70
2023-04-27T16:49:09.206Z,0.50
2023-04-27T16:51:36.603Z,0.60
2023-04-27T16:54:04.094Z,0.60
2023-04-27T16:56:32.840Z,0.50
2023-04-27T16:59:00.689Z,0.55
2023-04-27T17:01:30.123Z,0.52
2023-04-27T17:03:58.931Z,0.63
2023-04-27T17:06:28.043Z,0.45
2023-04-27T17:08:58.623Z,0.50
2023-04-27T17:11:26.660Z,0.50
2023-04-27T17:13:54.134Z,0.40
2023-04-27T17:16:22.108Z,0.50
2023-04-27T17:18:49.800Z,0.50
2023-04-27T17:21:17.493Z,0.60
2023-04-27T17:23:46.925Z,0.50
2023-04-27T17:26:16.122Z,0.40
2023-04-27T17:28:43.445Z,0.32
2023-04-27T17:31:10.928Z,0.65
2023-04-27T17:33:39.363Z,0.50
2023-04-27T17:36:07.324Z,0.40
2023-04-27T17:38:34.776Z,0.55
2023-04-27T17:41:02.189Z,0.60
2023-04-27T17:43:29.571Z,0.68
2023-04-27T17:45:56.921Z,0.50
2023-04-27T17:48:24.373Z,0.60
2023-04-27T17:50:54.933Z,0.57
2023-04-27T17:53:22.289Z,0.50
2023-04-27T17:55:49.734Z,0.50
2023-04-27T17:58:17.334Z,0.50
2023-04-27T18:00:44.843Z,0.53
2023-04-27T18:03:12.517Z,0.50
2023-04-27T18:05:40.179Z,0.60
2023-04-27T18:08:07.780Z,0.70
2023-04-27T18:10:35.168Z,0.70
2023-04-27T18:13:02.626Z,2.50
2023-04-27T18:15:30.127Z,3.80
2023-04-27T18:17:57.487Z,4.43
2023-04-27T18:20:26.114Z,1.50
2023-04-27T18:22:56.129Z,1.53
2023-04-27T18:25:23.532Z,1.20
2023-04-27T18:27:55.429Z,0.50
2023-04-27T18:30:23.290Z,0.60
2023-04-27T18:32:50.885Z,0.60
2023-04-27T18:35:18.327Z,0.73
2023-04-27T18:37:48.460Z,0.60
2023-04-27T18:40:21.316Z,0.53
2023-04-27T18:42:48.912Z,0.60
2023-04-27T18:45:16.588Z,0.77
2023-04-27T18:47:44.098Z,0.60
2023-04-27T18:50:14.966Z,0.77
2023-04-27T18:52:42.361Z,0.83
2023-04-27T18:55:10.446Z,0.60
2023-04-27T18:57:37.929Z,0.90
2023-04-27T19:00:06.122Z,0.70
2023-04-27T19:02:34.043Z,0.70
2023-04-27T19:05:11.367Z,1.20
2023-04-27T19:07:41.226Z,1.07
2023-04-27T19:10:09.012Z,1.07
2023-04-27T19:12:36.365Z,0.93
2023-04-27T19:15:04.366Z,0.50
2023-04-27T19:17:31.874Z,0.70
2023-04-27T19:20:02.627Z,0.67
2023-04-27T19:22:34.397Z,0.80
2023-04-27T19:25:01.979Z,0.83
2023-04-27T19:27:29.445Z,0.80
2023-04-27T19:29:57.884Z,1.07
2023-04-27T19:32:27.744Z,0.70
2023-04-27T19:34:58.604Z,0.70
2023-04-27T19:37:26.329Z,0.70
2023-04-27T19:39:53.810Z,0.97
2023-04-27T19:42:21.164Z,1.00
2023-04-27T19:44:48.496Z,1.20
2023-04-27T19:47:16.053Z,1.20
2023-04-27T19:49:43.477Z,1.27
2023-04-27T19:52:10.780Z,0.90
2023-04-27T19:54:38.535Z,1.20
2023-04-27T19:57:06.379Z,0.90
2023-04-27T19:59:33.887Z,1.00
2023-04-27T20:02:01.762Z,1.00
2023-04-27T20:04:29.624Z,1.40
2023-04-27T20:07:00.248Z,1.30
2023-04-27T20:09:27.646Z,1.10
2023-04-27T20:11:55.328Z,0.70
2023-04-27T20:14:22.812Z,0.70
2023-04-27T20:16:50.183Z,0.80
2023-04-27T20:19:19.287Z,0.90
2023-04-27T20:21:46.878Z,0.70
2023-04-27T20:24:14.623Z,1.03
2023-04-27T20:26:42.122Z,0.70
2023-04-27T20:29:09.687Z,0.80
2023-04-27T20:31:37.165Z,0.70
2023-04-27T20:34:04.696Z,0.77
2023-04-27T20:36:32.330Z,0.60
2023-04-27T20:39:05.367Z,1.10
2023-04-27T20:41:36.283Z,1.10
2023-04-27T20:44:04.056Z,1.20
2023-04-27T20:46:31.655Z,0.70
2023-04-27T20:48:59.112Z,0.80
2023-04-27T20:51:26.527Z,0.90
2023-04-27T20:53:54.307Z,0.90
2023-04-27T20:56:21.648Z,0.60
2023-04-27T20:58:49.044Z,0.90
2023-04-27T21:01:17.766Z,0.70
2023-04-27T21:03:45.530Z,0.90
2023-04-27T21:06:13.046Z,1.00
2023-04-27T21:08:40.764Z,1.00
2023-04-27T21:11:08.294Z,1.00
2023-04-27T21:13:36.089Z,0.93
2023-04-27T21:16:04.126Z,0.80
2023-04-27T21:18:31.729Z,1.00
2023-04-27T21:20:59.295Z,0.97
2023-04-27T21:23:26.708Z,1.07
2023-04-27T21:25:54.130Z,1.03
2023-04-27T21:28:21.725Z,0.93
2023-04-27T21:30:49.127Z,1.10
2023-04-27T21:33:16.664Z,1.17
2023-04-27T21:35:44.124Z,1.40
2023-04-27T21:38:11.501Z,1.20
2023-04-27T21:40:38.810Z,1.10
2023-04-27T21:43:07.731Z,0.93
2023-04-27T21:45:36.188Z,1.00
2023-04-27T21:48:03.662Z,0.83
2023-04-27T21:50:31.337Z,1.00
2023-04-27T21:52:58.728Z,1.03
2023-04-27T21:55:26.245Z,0.87
2023-04-27T21:57:53.730Z,1.20
2023-04-27T22:00:21.162Z,1.40
2023-04-27T22:02:49.693Z,0.83
2023-04-27T22:05:21.103Z,1.13
2023-04-27T22:07:48.565Z,1.30
2023-04-27T22:10:16.275Z,1.00
2023-04-27T22:12:43.876Z,0.70
2023-04-27T22:15:11.454Z,0.90
2023-04-27T22:17:39.841Z,0.97
2023-04-27T22:20:11.451Z,1.20
2023-04-27T22:22:38.908Z,1.00
2023-04-27T22:25:07.164Z,1.00
2023-04-27T22:27:42.052Z,1.10
2023-04-27T22:30:12.607Z,1.20
2023-04-27T22:32:39.925Z,1.20
2023-04-27T22:35:18.676Z,1.00
2023-04-27T22:37:52.686Z,0.73
2023-04-27T22:40:20.370Z,1.00
2023-04-27T22:42:47.684Z,0.80
2023-04-27T22:45:15.276Z,1.03
2023-04-27T22:47:44.675Z,1.57
2023-04-27T22:50:12.906Z,1.00
2023-04-27T22:52:42.446Z,0.83
2023-04-27T22:55:10.898Z,0.80
2023-04-27T22:57:38.982Z,1.00
2023-04-27T23:00:09.130Z,1.03
2023-04-27T23:02:36.631Z,1.03
2023-04-27T23:05:04.525Z,1.00
2023-04-27T23:07:31.974Z,1.10
2023-04-27T23:10:03.233Z,1.10
2023-04-27T23:12:31.003Z,1.00
2023-04-27T23:14:59.006Z,0.90
2023-04-27T23:17:32.935Z,1.10
2023-04-27T23:20:01.692Z,1.00
2023-04-27T23:22:29.320Z,0.90
2023-04-27T23:24:56.856Z,0.70
2023-04-27T23:27:25.140Z,0.80
2023-04-27T23:29:53.000Z,1.03
2023-04-27T23:32:20.737Z,1.23
2023-04-27T23:34:48.203Z,0.93
2023-04-27T23:37:18.570Z,1.03
2023-04-27T23:39:46.488Z,0.97
2023-04-27T23:42:14.026Z,0.80
2023-04-27T23:44:41.452Z,1.00
2023-04-27T23:47:08.846Z,1.10
2023-04-27T23:49:36.405Z,0.80
2023-04-27T23:52:03.775Z,1.00
2023-04-27T23:54:34.244Z,1.30
2023-04-27T23:57:01.489Z,0.90
2023-04-27T23:59:29.049Z,1.20
